sensor_id;sensor_type;location;lat;lon;timestamp;temperature;humidity
28087;DHT22;15392;48.912;8.380;2023-02-01T00:01:59;10.20;55.30
28087;DHT22;15392;48.912;8.380;2023-02-01T00:04:25;10.20;55.40
28087;DHT22;15392;48.912;8.380;2023-02-01T00:06:51;10.20;55.30
28087;DHT22;15392;48.912;8.380;2023-02-01T00:09:17;10.20;55.00
28087;DHT22;15392;48.912;8.380;2023-02-01T00:11:43;10.20;55.00
28087;DHT22;15392;48.912;8.380;2023-02-01T00:14:09;10.20;55.00
28087;DHT22;15392;48.912;8.380;2023-02-01T00:16:35;10.30;55.00
28087;DHT22;15392;48.912;8.380;2023-02-01T00:19:11;10.30;55.00
28087;DHT22;15392;48.912;8.380;2023-02-01T00:21:38;10.30;55.10
28087;DHT22;15392;48.912;8.380;2023-02-01T00:24:04;10.30;55.10
28087;DHT22;15392;48.912;8.380;2023-02-01T00:26:42;10.30;55.10
28087;DHT22;15392;48.912;8.380;2023-02-01T00:29:15;10.30;55.10
28087;DHT22;15392;48.912;8.380;2023-02-01T00:31:42;10.30;54.80
28087;DHT22;15392;48.912;8.380;2023-02-01T00:34:14;10.30;55.30
28087;DHT22;15392;48.912;8.380;2023-02-01T00:36:42;10.30;54.80
28087;DHT22;15392;48.912;8.380;2023-02-01T00:39:09;10.40;55.40
28087;DHT22;15392;48.912;8.380;2023-02-01T00:41:35;10.40;55.00
28087;DHT22;15392;48.912;8.380;2023-02-01T00:44:01;10.40;54.90
28087;DHT22;15392;48.912;8.380;2023-02-01T00:46:27;10.40;54.90
28087;DHT22;15392;48.912;8.380;2023-02-01T00:48:53;10.40;54.90
28087;DHT22;15392;48.912;8.380;2023-02-01T00:51:23;10.40;54.90
28087;DHT22;15392;48.912;8.380;2023-02-01T00:53:50;10.40;54.90
28087;DHT22;15392;48.912;8.380;2023-02-01T00:56:16;10.40;55.60
28087;DHT22;15392;48.912;8.380;2023-02-01T00:58:43;10.50;54.90
28087;DHT22;15392;48.912;8.380;2023-02-01T01:01:15;10.50;54.90
28087;DHT22;15392;48.912;8.380;2023-02-01T01:03:49;10.40;55.00
28087;DHT22;15392;48.912;8.380;2023-02-01T01:06:25;10.50;54.90
28087;DHT22;15392;48.912;8.380;2023-02-01T01:08:53;10.50;55.00
28087;DHT22;15392;48.912;8.380;2023-02-01T01:11:23;10.50;55.00
28087;DHT22;15392;48.912;8.380;2023-02-01T01:13:54;10.50;54.90
28087;DHT22;15392;48.912;8.380;2023-02-01T01:16:22;10.50;55.00
28087;DHT22;15392;48.912;8.380;2023-02-01T01:18:49;10.40;54.90
28087;DHT22;15392;48.912;8.380;2023-02-01T01:21:16;10.50;54.80
28087;DHT22;15392;48.912;8.380;2023-02-01T01:23:43;10.50;54.80
28087;DHT22;15392;48.912;8.380;2023-02-01T01:26:14;10.40;54.70
28087;DHT22;15392;48.912;8.380;2023-02-01T01:28:41;10.50;54.70
28087;DHT22;15392;48.912;8.380;2023-02-01T01:31:11;10.50;54.80
28087;DHT22;15392;48.912;8.380;2023-02-01T01:33:38;10.50;54.70
28087;DHT22;15392;48.912;8.380;2023-02-01T01:36:08;10.50;54.70
28087;DHT22;15392;48.912;8.380;2023-02-01T01:38:41;10.50;54.70
28087;DHT22;15392;48.912;8.380;2023-02-01T01:41:08;10.50;54.70
28087;DHT22;15392;48.912;8.380;2023-02-01T01:44:05;10.50;54.70
28087;DHT22;15392;48.912;8.380;2023-02-01T01:46:37;10.50;54.60
28087;DHT22;15392;48.912;8.380;2023-02-01T01:49:10;10.50;54.70
28087;DHT22;15392;48.912;8.380;2023-02-01T01:52:03;10.50;54.70
28087;DHT22;15392;48.912;8.380;2023-02-01T01:54:33;10.50;54.80
28087;DHT22;15392;48.912;8.380;2023-02-01T01:57:10;10.50;54.70
28087;DHT22;15392;48.912;8.380;2023-02-01T01:59:40;10.50;54.70
28087;DHT22;15392;48.912;8.380;2023-02-01T02:02:08;10.50;54.60
28087;DHT22;15392;48.912;8.380;2023-02-01T02:04:35;10.50;54.70
28087;DHT22;15392;48.912;8.380;2023-02-01T02:07:11;10.50;54.70
28087;DHT22;15392;48.912;8.380;2023-02-01T02:09:39;10.50;54.70
28087;DHT22;15392;48.912;8.380;2023-02-01T02:12:05;10.50;55.40
28087;DHT22;15392;48.912;8.380;2023-02-01T02:14:31;10.60;54.80
28087;DHT22;15392;48.912;8.380;2023-02-01T02:17:30;10.60;55.00
28087;DHT22;15392;48.912;8.380;2023-02-01T02:26:18;10.60;55.00
28087;DHT22;15392;48.912;8.380;2023-02-01T02:34:43;10.50;55.00
28087;DHT22;15392;48.912;8.380;2023-02-01T02:37:38;10.60;55.00
28087;DHT22;15392;48.912;8.380;2023-02-01T02:40:31;10.60;55.00
28087;DHT22;15392;48.912;8.380;2023-02-01T02:46:04;10.60;55.00
28087;DHT22;15392;48.912;8.380;2023-02-01T02:49:18;10.60;55.00
28087;DHT22;15392;48.912;8.380;2023-02-01T02:51:48;10.50;54.80
28087;DHT22;15392;48.912;8.380;2023-02-01T02:54:37;10.50;54.80
28087;DHT22;15392;48.912;8.380;2023-02-01T02:57:26;10.50;54.90
28087;DHT22;15392;48.912;8.380;2023-02-01T03:00:16;10.60;55.70
28087;DHT22;15392;48.912;8.380;2023-02-01T03:03:02;10.50;55.00
28087;DHT22;15392;48.912;8.380;2023-02-01T03:05:49;10.50;55.00
28087;DHT22;15392;48.912;8.380;2023-02-01T03:08:29;10.50;55.00
28087;DHT22;15392;48.912;8.380;2023-02-01T03:16:33;10.50;55.20
28087;DHT22;15392;48.912;8.380;2023-02-01T03:19:19;10.50;55.20
28087;DHT22;15392;48.912;8.380;2023-02-01T03:21:51;10.50;55.40
28087;DHT22;15392;48.912;8.380;2023-02-01T03:24:53;10.50;55.20
28087;DHT22;15392;48.912;8.380;2023-02-01T03:27:27;10.50;55.20
28087;DHT22;15392;48.912;8.380;2023-02-01T03:32:44;10.50;55.20
28087;DHT22;15392;48.912;8.380;2023-02-01T03:47:14;10.50;55.00
28087;DHT22;15392;48.912;8.380;2023-02-01T03:50:00;10.50;55.20
28087;DHT22;15392;48.912;8.380;2023-02-01T03:52:38;10.50;55.00
28087;DHT22;15392;48.912;8.380;2023-02-01T03:55:08;10.50;55.00
28087;DHT22;15392;48.912;8.380;2023-02-01T03:57:38;10.50;54.90
28087;DHT22;15392;48.912;8.380;2023-02-01T04:00:17;10.50;54.90
28087;DHT22;15392;48.912;8.380;2023-02-01T04:02:48;10.60;54.90
28087;DHT22;15392;48.912;8.380;2023-02-01T04:05:14;10.60;55.00
28087;DHT22;15392;48.912;8.380;2023-02-01T04:07:40;10.50;54.80
28087;DHT22;15392;48.912;8.380;2023-02-01T04:10:06;10.60;54.80
28087;DHT22;15392;48.912;8.380;2023-02-01T04:12:32;10.60;54.90
28087;DHT22;15392;48.912;8.380;2023-02-01T04:14:58;10.60;54.90
28087;DHT22;15392;48.912;8.380;2023-02-01T04:17:24;10.60;54.90
28087;DHT22;15392;48.912;8.380;2023-02-01T04:19:50;10.60;55.00
28087;DHT22;15392;48.912;8.380;2023-02-01T04:22:15;10.60;55.00
28087;DHT22;15392;48.912;8.380;2023-02-01T04:24:41;10.60;55.00
28087;DHT22;15392;48.912;8.380;2023-02-01T04:27:07;10.60;55.10
28087;DHT22;15392;48.912;8.380;2023-02-01T04:29:33;10.60;55.20
28087;DHT22;15392;48.912;8.380;2023-02-01T04:31:59;10.60;55.10
28087;DHT22;15392;48.912;8.380;2023-02-01T04:34:25;10.60;55.10
28087;DHT22;15392;48.912;8.380;2023-02-01T04:36:51;10.60;55.10
28087;DHT22;15392;48.912;8.380;2023-02-01T04:39:17;10.60;55.10
28087;DHT22;15392;48.912;8.380;2023-02-01T04:41:43;10.60;55.10
28087;DHT22;15392;48.912;8.380;2023-02-01T04:44:19;10.60;55.00
28087;DHT22;15392;48.912;8.380;2023-02-01T04:46:46;10.60;55.70
28087;DHT22;15392;48.912;8.380;2023-02-01T04:49:13;10.60;54.90
28087;DHT22;15392;48.912;8.380;2023-02-01T04:51:40;10.60;55.10
28087;DHT22;15392;48.912;8.380;2023-02-01T04:54:06;10.60;55.20
28087;DHT22;15392;48.912;8.380;2023-02-01T04:56:33;10.60;55.20
28087;DHT22;15392;48.912;8.380;2023-02-01T04:59:00;10.60;55.40
28087;DHT22;15392;48.912;8.380;2023-02-01T05:01:28;10.60;55.50
28087;DHT22;15392;48.912;8.380;2023-02-01T05:03:53;10.60;55.50
28087;DHT22;15392;48.912;8.380;2023-02-01T05:06:19;10.60;55.80
28087;DHT22;15392;48.912;8.380;2023-02-01T05:08:45;10.60;55.90
28087;DHT22;15392;48.912;8.380;2023-02-01T05:11:11;10.60;56.20
28087;DHT22;15392;48.912;8.380;2023-02-01T05:13:58;10.60;56.20
28087;DHT22;15392;48.912;8.380;2023-02-01T05:16:24;10.60;56.70
28087;DHT22;15392;48.912;8.380;2023-02-01T05:18:50;10.50;56.30
28087;DHT22;15392;48.912;8.380;2023-02-01T05:21:16;10.50;56.60
28087;DHT22;15392;48.912;8.380;2023-02-01T05:23:42;10.50;56.80
28087;DHT22;15392;48.912;8.380;2023-02-01T05:26:27;10.50;56.70
28087;DHT22;15392;48.912;8.380;2023-02-01T05:28:53;10.40;56.60
28087;DHT22;15392;48.912;8.380;2023-02-01T05:31:18;10.40;56.20
28087;DHT22;15392;48.912;8.380;2023-02-01T05:33:44;10.40;56.10
28087;DHT22;15392;48.912;8.380;2023-02-01T05:36:10;10.40;56.30
28087;DHT22;15392;48.912;8.380;2023-02-01T05:38:35;10.40;56.20
28087;DHT22;15392;48.912;8.380;2023-02-01T05:41:01;10.40;56.00
28087;DHT22;15392;48.912;8.380;2023-02-01T05:43:27;10.40;56.10
28087;DHT22;15392;48.912;8.380;2023-02-01T05:45:53;10.30;56.40
28087;DHT22;15392;48.912;8.380;2023-02-01T05:48:19;10.30;56.00
28087;DHT22;15392;48.912;8.380;2023-02-01T05:50:45;10.30;56.00
28087;DHT22;15392;48.912;8.380;2023-02-01T05:53:11;10.30;55.90
28087;DHT22;15392;48.912;8.380;2023-02-01T05:55:37;10.30;56.00
28087;DHT22;15392;48.912;8.380;2023-02-01T05:58:04;10.30;56.10
28087;DHT22;15392;48.912;8.380;2023-02-01T06:00:30;10.30;56.00
28087;DHT22;15392;48.912;8.380;2023-02-01T06:02:56;10.30;55.90
28087;DHT22;15392;48.912;8.380;2023-02-01T06:05:22;10.20;56.10
28087;DHT22;15392;48.912;8.380;2023-02-01T06:07:48;10.30;55.90
28087;DHT22;15392;48.912;8.380;2023-02-01T06:10:18;10.20;55.90
28087;DHT22;15392;48.912;8.380;2023-02-01T06:12:44;10.30;56.00
28087;DHT22;15392;48.912;8.380;2023-02-01T06:15:11;10.20;55.80
28087;DHT22;15392;48.912;8.380;2023-02-01T06:17:37;10.30;55.70
28087;DHT22;15392;48.912;8.380;2023-02-01T06:20:07;10.30;55.90
28087;DHT22;15392;48.912;8.380;2023-02-01T06:22:33;10.30;56.10
28087;DHT22;15392;48.912;8.380;2023-02-01T06:25:05;10.30;55.90
28087;DHT22;15392;48.912;8.380;2023-02-01T06:27:33;10.30;56.10
28087;DHT22;15392;48.912;8.380;2023-02-01T06:29:59;10.30;55.80
28087;DHT22;15392;48.912;8.380;2023-02-01T06:32:25;10.40;55.80
28087;DHT22;15392;48.912;8.380;2023-02-01T06:34:51;10.40;55.80
28087;DHT22;15392;48.912;8.380;2023-02-01T06:37:21;10.40;55.60
28087;DHT22;15392;48.912;8.380;2023-02-01T06:39:48;10.40;55.80
28087;DHT22;15392;48.912;8.380;2023-02-01T06:42:14;10.40;55.80
28087;DHT22;15392;48.912;8.380;2023-02-01T06:44:41;10.40;55.90
28087;DHT22;15392;48.912;8.380;2023-02-01T06:47:07;10.40;55.90
28087;DHT22;15392;48.912;8.380;2023-02-01T06:49:33;10.50;55.70
28087;DHT22;15392;48.912;8.380;2023-02-01T06:51:58;10.50;55.70
28087;DHT22;15392;48.912;8.380;2023-02-01T06:54:27;10.50;55.70
28087;DHT22;15392;48.912;8.380;2023-02-01T06:56:53;10.50;55.60
28087;DHT22;15392;48.912;8.380;2023-02-01T06:59:19;10.50;55.70
28087;DHT22;15392;48.912;8.380;2023-02-01T07:01:45;10.50;55.80
28087;DHT22;15392;48.912;8.380;2023-02-01T07:04:11;10.50;55.70
28087;DHT22;15392;48.912;8.380;2023-02-01T07:06:39;10.50;55.60
28087;DHT22;15392;48.912;8.380;2023-02-01T07:09:05;10.50;55.70
28087;DHT22;15392;48.912;8.380;2023-02-01T07:11:31;10.50;55.50
28087;DHT22;15392;48.912;8.380;2023-02-01T07:13:58;10.50;55.40
28087;DHT22;15392;48.912;8.380;2023-02-01T07:16:24;10.50;55.50
28087;DHT22;15392;48.912;8.380;2023-02-01T07:18:51;10.50;55.40
28087;DHT22;15392;48.912;8.380;2023-02-01T07:21:18;10.50;55.30
28087;DHT22;15392;48.912;8.380;2023-02-01T07:23:44;10.60;55.50
28087;DHT22;15392;48.912;8.380;2023-02-01T07:26:12;10.60;55.60
28087;DHT22;15392;48.912;8.380;2023-02-01T07:28:39;10.60;55.40
28087;DHT22;15392;48.912;8.380;2023-02-01T07:31:16;10.60;55.60
28087;DHT22;15392;48.912;8.380;2023-02-01T07:33:48;10.60;55.50
28087;DHT22;15392;48.912;8.380;2023-02-01T07:36:17;10.60;55.50
28087;DHT22;15392;48.912;8.380;2023-02-01T07:38:44;10.60;55.40
28087;DHT22;15392;48.912;8.380;2023-02-01T07:41:12;10.60;55.30
28087;DHT22;15392;48.912;8.380;2023-02-01T07:43:38;10.70;55.30
28087;DHT22;15392;48.912;8.380;2023-02-01T07:46:04;10.70;55.30
28087;DHT22;15392;48.912;8.380;2023-02-01T07:48:31;10.70;55.30
28087;DHT22;15392;48.912;8.380;2023-02-01T07:51:02;10.70;55.30
28087;DHT22;15392;48.912;8.380;2023-02-01T07:53:33;10.70;55.30
28087;DHT22;15392;48.912;8.380;2023-02-01T07:55:59;10.70;55.30
28087;DHT22;15392;48.912;8.380;2023-02-01T07:58:26;10.70;55.20
28087;DHT22;15392;48.912;8.380;2023-02-01T08:00:53;10.70;55.30
28087;DHT22;15392;48.912;8.380;2023-02-01T08:03:37;10.70;55.20
28087;DHT22;15392;48.912;8.380;2023-02-01T08:06:04;10.70;55.10
28087;DHT22;15392;48.912;8.380;2023-02-01T08:08:30;10.70;55.10
28087;DHT22;15392;48.912;8.380;2023-02-01T08:11:00;10.80;55.20
28087;DHT22;15392;48.912;8.380;2023-02-01T08:13:26;10.80;55.10
28087;DHT22;15392;48.912;8.380;2023-02-01T08:15:56;10.80;55.30
28087;DHT22;15392;48.912;8.380;2023-02-01T08:18:23;10.80;55.00
28087;DHT22;15392;48.912;8.380;2023-02-01T08:20:48;10.80;55.20
28087;DHT22;15392;48.912;8.380;2023-02-01T08:23:14;10.80;55.00
28087;DHT22;15392;48.912;8.380;2023-02-01T08:25:40;10.80;55.20
28087;DHT22;15392;48.912;8.380;2023-02-01T08:28:07;10.80;55.30
28087;DHT22;15392;48.912;8.380;2023-02-01T08:30:32;10.80;55.30
28087;DHT22;15392;48.912;8.380;2023-02-01T08:32:58;10.80;55.20
28087;DHT22;15392;48.912;8.380;2023-02-01T08:35:24;10.80;55.10
28087;DHT22;15392;48.912;8.380;2023-02-01T08:37:50;10.80;55.00
28087;DHT22;15392;48.912;8.380;2023-02-01T08:40:16;10.80;55.10
28087;DHT22;15392;48.912;8.380;2023-02-01T08:42:42;10.80;55.00
28087;DHT22;15392;48.912;8.380;2023-02-01T08:45:25;10.80;55.00
28087;DHT22;15392;48.912;8.380;2023-02-01T08:47:53;10.80;55.00
28087;DHT22;15392;48.912;8.380;2023-02-01T08:50:20;10.80;55.00
28087;DHT22;15392;48.912;8.380;2023-02-01T08:52:47;10.80;54.90
28087;DHT22;15392;48.912;8.380;2023-02-01T08:55:13;10.80;55.00
28087;DHT22;15392;48.912;8.380;2023-02-01T08:57:40;10.80;54.90
28087;DHT22;15392;48.912;8.380;2023-02-01T09:00:09;10.80;54.90
28087;DHT22;15392;48.912;8.380;2023-02-01T09:02:37;10.90;54.90
28087;DHT22;15392;48.912;8.380;2023-02-01T09:05:04;10.90;54.80
28087;DHT22;15392;48.912;8.380;2023-02-01T09:07:30;10.80;54.80
28087;DHT22;15392;48.912;8.380;2023-02-01T09:09:56;10.90;54.80
28087;DHT22;15392;48.912;8.380;2023-02-01T09:12:27;10.90;54.80
28087;DHT22;15392;48.912;8.380;2023-02-01T09:14:57;10.90;54.90
28087;DHT22;15392;48.912;8.380;2023-02-01T09:17:25;10.90;54.80
28087;DHT22;15392;48.912;8.380;2023-02-01T09:19:52;10.90;54.80
28087;DHT22;15392;48.912;8.380;2023-02-01T09:22:17;11.00;54.90
28087;DHT22;15392;48.912;8.380;2023-02-01T09:24:43;11.00;54.80
28087;DHT22;15392;48.912;8.380;2023-02-01T09:27:10;11.00;54.80
28087;DHT22;15392;48.912;8.380;2023-02-01T09:29:35;11.00;55.40
28087;DHT22;15392;48.912;8.380;2023-02-01T09:32:01;11.00;55.40
28087;DHT22;15392;48.912;8.380;2023-02-01T09:34:27;11.00;54.70
28087;DHT22;15392;48.912;8.380;2023-02-01T09:36:53;11.00;54.70
28087;DHT22;15392;48.912;8.380;2023-02-01T09:39:19;11.10;54.70
28087;DHT22;15392;48.912;8.380;2023-02-01T09:41:54;11.10;54.50
28087;DHT22;15392;48.912;8.380;2023-02-01T09:47:14;11.10;54.30
28087;DHT22;15392;48.912;8.380;2023-02-01T09:50:14;11.10;54.20
28087;DHT22;15392;48.912;8.380;2023-02-01T09:58:32;11.20;54.10
28087;DHT22;15392;48.912;8.380;2023-02-01T10:01:02;11.20;53.80
28087;DHT22;15392;48.912;8.380;2023-02-01T10:03:31;11.20;53.80
28087;DHT22;15392;48.912;8.380;2023-02-01T10:06:08;11.20;53.70
28087;DHT22;15392;48.912;8.380;2023-02-01T10:12:16;11.20;53.50
28087;DHT22;15392;48.912;8.380;2023-02-01T10:26:18;11.20;53.40
28087;DHT22;15392;48.912;8.380;2023-02-01T10:28:51;11.20;53.50
28087;DHT22;15392;48.912;8.380;2023-02-01T10:31:19;11.20;53.40
28087;DHT22;15392;48.912;8.380;2023-02-01T10:33:51;11.20;53.60
28087;DHT22;15392;48.912;8.380;2023-02-01T10:36:44;11.20;53.40
28087;DHT22;15392;48.912;8.380;2023-02-01T10:39:48;11.20;53.30
28087;DHT22;15392;48.912;8.380;2023-02-01T10:42:20;11.30;53.60
28087;DHT22;15392;48.912;8.380;2023-02-01T10:44:48;11.30;53.70
28087;DHT22;15392;48.912;8.380;2023-02-01T10:47:14;11.30;53.50
28087;DHT22;15392;48.912;8.380;2023-02-01T10:52:15;11.30;53.60
28087;DHT22;15392;48.912;8.380;2023-02-01T10:54:43;11.30;53.60
28087;DHT22;15392;48.912;8.380;2023-02-01T10:57:24;11.40;53.60
28087;DHT22;15392;48.912;8.380;2023-02-01T10:59:53;11.40;53.50
28087;DHT22;15392;48.912;8.380;2023-02-01T11:02:30;11.40;53.50
28087;DHT22;15392;48.912;8.380;2023-02-01T11:05:08;11.40;53.40
28087;DHT22;15392;48.912;8.380;2023-02-01T11:07:36;11.50;53.40
28087;DHT22;15392;48.912;8.380;2023-02-01T11:10:04;11.50;53.20
28087;DHT22;15392;48.912;8.380;2023-02-01T11:12:35;11.50;53.10
28087;DHT22;15392;48.912;8.380;2023-02-01T11:15:19;11.50;53.10
28087;DHT22;15392;48.912;8.380;2023-02-01T11:17:49;11.50;53.10
28087;DHT22;15392;48.912;8.380;2023-02-01T11:20:35;11.50;53.10
28087;DHT22;15392;48.912;8.380;2023-02-01T11:23:04;11.50;52.70
28087;DHT22;15392;48.912;8.380;2023-02-01T11:25:32;11.50;52.50
28087;DHT22;15392;48.912;8.380;2023-02-01T11:28:01;11.50;52.70
28087;DHT22;15392;48.912;8.380;2023-02-01T11:30:32;11.50;52.80
28087;DHT22;15392;48.912;8.380;2023-02-01T11:33:01;11.50;52.80
28087;DHT22;15392;48.912;8.380;2023-02-01T11:35:28;11.50;52.90
28087;DHT22;15392;48.912;8.380;2023-02-01T11:37:57;11.50;53.00
28087;DHT22;15392;48.912;8.380;2023-02-01T11:40:38;11.50;52.80
28087;DHT22;15392;48.912;8.380;2023-02-01T11:45:58;11.60;52.90
28087;DHT22;15392;48.912;8.380;2023-02-01T11:48:27;11.60;52.80
28087;DHT22;15392;48.912;8.380;2023-02-01T12:09:07;11.50;53.40
28087;DHT22;15392;48.912;8.380;2023-02-01T12:12:07;11.50;53.60
28087;DHT22;15392;48.912;8.380;2023-02-01T12:14:55;11.50;53.80
28087;DHT22;15392;48.912;8.380;2023-02-01T12:17:42;11.50;53.90
28087;DHT22;15392;48.912;8.380;2023-02-01T12:35:03;11.40;54.30
28087;DHT22;15392;48.912;8.380;2023-02-01T12:38:16;11.40;54.30
28087;DHT22;15392;48.912;8.380;2023-02-01T12:44:01;11.40;54.40
28087;DHT22;15392;48.912;8.380;2023-02-01T12:49:18;11.30;54.30
28087;DHT22;15392;48.912;8.380;2023-02-01T12:51:55;11.30;54.30
28087;DHT22;15392;48.912;8.380;2023-02-01T12:54:40;11.30;54.20
28087;DHT22;15392;48.912;8.380;2023-02-01T12:57:21;11.30;54.30
28087;DHT22;15392;48.912;8.380;2023-02-01T13:00:25;11.30;54.20
28087;DHT22;15392;48.912;8.380;2023-02-01T13:03:40;11.30;54.20
28087;DHT22;15392;48.912;8.380;2023-02-01T13:11:54;11.30;54.20
28087;DHT22;15392;48.912;8.380;2023-02-01T13:14:35;11.30;54.20
28087;DHT22;15392;48.912;8.380;2023-02-01T13:17:09;11.30;54.60
28087;DHT22;15392;48.912;8.380;2023-02-01T13:22:34;11.30;55.60
28087;DHT22;15392;48.912;8.380;2023-02-01T13:27:56;11.30;55.60
28087;DHT22;15392;48.912;8.380;2023-02-01T13:30:34;11.20;55.50
28087;DHT22;15392;48.912;8.380;2023-02-01T13:42:25;11.20;55.30
28087;DHT22;15392;48.912;8.380;2023-02-01T13:45:21;11.20;55.20
28087;DHT22;15392;48.912;8.380;2023-02-01T13:47:51;11.20;55.20
28087;DHT22;15392;48.912;8.380;2023-02-01T13:50:28;11.10;54.80
28087;DHT22;15392;48.912;8.380;2023-02-01T13:53:17;11.20;54.90
28087;DHT22;15392;48.912;8.380;2023-02-01T13:56:01;11.20;54.90
28087;DHT22;15392;48.912;8.380;2023-02-01T13:58:35;11.20;54.90
28087;DHT22;15392;48.912;8.380;2023-02-01T14:03:48;11.20;54.90
28087;DHT22;15392;48.912;8.380;2023-02-01T14:11:50;11.30;54.70
28087;DHT22;15392;48.912;8.380;2023-02-01T14:19:23;11.20;54.20
28087;DHT22;15392;48.912;8.380;2023-02-01T14:24:33;11.30;54.20
28087;DHT22;15392;48.912;8.380;2023-02-01T14:29:41;11.30;54.10
28087;DHT22;15392;48.912;8.380;2023-02-01T14:32:34;11.30;53.70
28087;DHT22;15392;48.912;8.380;2023-02-01T14:35:07;11.40;53.80
28087;DHT22;15392;48.912;8.380;2023-02-01T14:37:41;11.40;53.40
28087;DHT22;15392;48.912;8.380;2023-02-01T14:47:55;11.40;52.90
28087;DHT22;15392;48.912;8.380;2023-02-01T14:50:42;11.40;53.10
28087;DHT22;15392;48.912;8.380;2023-02-01T15:01:34;11.50;53.00
28087;DHT22;15392;48.912;8.380;2023-02-01T15:04:15;11.50;53.10
28087;DHT22;15392;48.912;8.380;2023-02-01T15:09:31;11.50;53.10
28087;DHT22;15392;48.912;8.380;2023-02-01T15:14:44;11.50;53.10
28087;DHT22;15392;48.912;8.380;2023-02-01T15:17:23;11.60;53.00
28087;DHT22;15392;48.912;8.380;2023-02-01T15:19:56;11.60;53.00
28087;DHT22;15392;48.912;8.380;2023-02-01T15:22:23;11.60;52.80
28087;DHT22;15392;48.912;8.380;2023-02-01T15:24:58;11.60;53.60
28087;DHT22;15392;48.912;8.380;2023-02-01T15:27:26;11.60;52.70
28087;DHT22;15392;48.912;8.380;2023-02-01T15:29:53;11.70;52.60
28087;DHT22;15392;48.912;8.380;2023-02-01T15:32:33;11.60;52.40
28087;DHT22;15392;48.912;8.380;2023-02-01T15:35:01;11.70;52.60
28087;DHT22;15392;48.912;8.380;2023-02-01T15:37:28;11.70;52.60
28087;DHT22;15392;48.912;8.380;2023-02-01T15:42:52;11.70;52.50
28087;DHT22;15392;48.912;8.380;2023-02-01T15:45:29;11.70;52.50
28087;DHT22;15392;48.912;8.380;2023-02-01T15:47:58;11.80;52.60
28087;DHT22;15392;48.912;8.380;2023-02-01T15:50:27;11.70;52.70
28087;DHT22;15392;48.912;8.380;2023-02-01T15:52:54;11.80;52.80
28087;DHT22;15392;48.912;8.380;2023-02-01T15:55:35;11.80;52.70
28087;DHT22;15392;48.912;8.380;2023-02-01T15:58:20;11.80;52.50
28087;DHT22;15392;48.912;8.380;2023-02-01T16:00:53;11.70;51.80
28087;DHT22;15392;48.912;8.380;2023-02-01T16:05:57;11.70;52.10
28087;DHT22;15392;48.912;8.380;2023-02-01T16:08:26;11.70;52.30
28087;DHT22;15392;48.912;8.380;2023-02-01T16:11:19;11.70;52.10
28087;DHT22;15392;48.912;8.380;2023-02-01T16:14:06;11.70;52.10
28087;DHT22;15392;48.912;8.380;2023-02-01T16:16:32;11.70;52.30
28087;DHT22;15392;48.912;8.380;2023-02-01T16:18:57;11.70;52.30
28087;DHT22;15392;48.912;8.380;2023-02-01T16:21:23;11.70;52.10
28087;DHT22;15392;48.912;8.380;2023-02-01T16:23:50;11.70;52.30
28087;DHT22;15392;48.912;8.380;2023-02-01T16:26:16;11.70;52.30
28087;DHT22;15392;48.912;8.380;2023-02-01T16:28:42;11.70;52.30
28087;DHT22;15392;48.912;8.380;2023-02-01T16:31:13;11.70;52.30
28087;DHT22;15392;48.912;8.380;2023-02-01T16:33:50;11.70;51.90
28087;DHT22;15392;48.912;8.380;2023-02-01T16:36:17;11.70;51.90
28087;DHT22;15392;48.912;8.380;2023-02-01T16:38:43;11.70;52.30
28087;DHT22;15392;48.912;8.380;2023-02-01T16:41:13;11.70;52.00
28087;DHT22;15392;48.912;8.380;2023-02-01T16:43:40;11.70;52.00
28087;DHT22;15392;48.912;8.380;2023-02-01T16:46:15;11.70;52.20
28087;DHT22;15392;48.912;8.380;2023-02-01T16:48:48;11.70;51.90
28087;DHT22;15392;48.912;8.380;2023-02-01T16:51:16;11.70;52.20
28087;DHT22;15392;48.912;8.380;2023-02-01T16:53:43;11.70;51.90
28087;DHT22;15392;48.912;8.380;2023-02-01T16:58:40;11.60;52.00
28087;DHT22;15392;48.912;8.380;2023-02-01T17:01:11;11.70;52.20
28087;DHT22;15392;48.912;8.380;2023-02-01T17:03:42;11.60;52.10
28087;DHT22;15392;48.912;8.380;2023-02-01T17:06:11;11.60;51.80
28087;DHT22;15392;48.912;8.380;2023-02-01T17:08:41;11.60;51.90
28087;DHT22;15392;48.912;8.380;2023-02-01T17:11:11;11.60;52.00
28087;DHT22;15392;48.912;8.380;2023-02-01T17:13:39;11.60;51.70
28087;DHT22;15392;48.912;8.380;2023-02-01T17:18:49;11.60;52.60
28087;DHT22;15392;48.912;8.380;2023-02-01T17:21:28;11.60;52.30
28087;DHT22;15392;48.912;8.380;2023-02-01T17:23:55;11.50;51.90
28087;DHT22;15392;48.912;8.380;2023-02-01T17:26:24;11.60;52.10
28087;DHT22;15392;48.912;8.380;2023-02-01T17:28:50;11.50;52.30
28087;DHT22;15392;48.912;8.380;2023-02-01T17:31:16;11.50;52.40
28087;DHT22;15392;48.912;8.380;2023-02-01T17:33:42;11.50;52.50
28087;DHT22;15392;48.912;8.380;2023-02-01T17:36:12;11.50;52.50
28087;DHT22;15392;48.912;8.380;2023-02-01T17:38:39;11.50;52.50
28087;DHT22;15392;48.912;8.380;2023-02-01T17:41:05;11.50;52.30
28087;DHT22;15392;48.912;8.380;2023-02-01T17:43:31;11.50;52.50
28087;DHT22;15392;48.912;8.380;2023-02-01T17:46:14;11.50;52.40
28087;DHT22;15392;48.912;8.380;2023-02-01T17:48:43;11.50;52.60
28087;DHT22;15392;48.912;8.380;2023-02-01T17:51:28;11.50;52.40
28087;DHT22;15392;48.912;8.380;2023-02-01T17:53:55;11.40;52.00
28087;DHT22;15392;48.912;8.380;2023-02-01T17:56:22;11.40;52.20
28087;DHT22;15392;48.912;8.380;2023-02-01T17:58:49;11.40;52.30
28087;DHT22;15392;48.912;8.380;2023-02-01T18:01:19;11.40;52.20
28087;DHT22;15392;48.912;8.380;2023-02-01T18:03:47;11.40;52.30
28087;DHT22;15392;48.912;8.380;2023-02-01T18:06:15;11.40;52.40
28087;DHT22;15392;48.912;8.380;2023-02-01T18:08:43;11.40;52.40
28087;DHT22;15392;48.912;8.380;2023-02-01T18:11:15;11.40;52.50
28087;DHT22;15392;48.912;8.380;2023-02-01T18:13:42;11.40;52.20
28087;DHT22;15392;48.912;8.380;2023-02-01T18:16:24;11.40;52.30
28087;DHT22;15392;48.912;8.380;2023-02-01T18:18:52;11.40;52.10
28087;DHT22;15392;48.912;8.380;2023-02-01T18:21:20;11.40;51.90
28087;DHT22;15392;48.912;8.380;2023-02-01T18:23:47;11.40;52.10
28087;DHT22;15392;48.912;8.380;2023-02-01T18:26:16;11.40;51.90
28087;DHT22;15392;48.912;8.380;2023-02-01T18:28:43;11.50;52.20
28087;DHT22;15392;48.912;8.380;2023-02-01T18:31:25;11.50;51.60
28087;DHT22;15392;48.912;8.380;2023-02-01T18:33:53;11.50;51.70
28087;DHT22;15392;48.912;8.380;2023-02-01T18:36:20;11.50;52.10
28087;DHT22;15392;48.912;8.380;2023-02-01T18:38:46;11.50;52.00
28087;DHT22;15392;48.912;8.380;2023-02-01T18:41:14;11.50;52.10
28087;DHT22;15392;48.912;8.380;2023-02-01T18:43:42;11.50;51.60
28087;DHT22;15392;48.912;8.380;2023-02-01T18:46:09;11.50;51.70
28087;DHT22;15392;48.912;8.380;2023-02-01T18:48:35;11.50;51.40
28087;DHT22;15392;48.912;8.380;2023-02-01T18:51:01;11.60;51.70